sensor_id;sensor_type;location;lat;lon;timestamp;P1;durP1;ratioP1;P2;durP2;ratioP2
17686;SDS011;8962;52.538;13.266;2024-02-21T00:00:49;19.40;;;6.55;;
17686;SDS011;8962;52.538;13.266;2024-02-21T00:03:16;16.40;;;6.70;;
17686;SDS011;8962;52.538;13.266;2024-02-21T00:05:43;24.90;;;6.20;;
17686;SDS011;8962;52.538;13.266;2024-02-21T00:08:10;21.90;;;6.72;;
17686;SDS011;8962;52.538;13.266;2024-02-21T00:10:37;24.52;;;6.15;;
17686;SDS011;8962;52.538;13.266;2024-02-21T00:13:04;22.05;;;6.68;;
17686;SDS011;8962;52.538;13.266;2024-02-21T00:15:32;21.25;;;6.75;;
17686;SDS011;8962;52.538;13.266;2024-02-21T00:18:00;26.92;;;6.65;;
17686;SDS011;8962;52.538;13.266;2024-02-21T00:20:27;21.10;;;6.72;;
17686;SDS011;8962;52.538;13.266;2024-02-21T00:22:55;23.27;;;6.35;;
17686;SDS011;8962;52.538;13.266;2024-02-21T00:25:22;31.55;;;6.63;;
17686;SDS011;8962;52.538;13.266;2024-02-21T00:27:49;21.02;;;5.97;;
17686;SDS011;8962;52.538;13.266;2024-02-21T00:30:16;18.50;;;6.18;;
17686;SDS011;8962;52.538;13.266;2024-02-21T00:32:44;21.13;;;6.82;;
17686;SDS011;8962;52.538;13.266;2024-02-21T00:35:13;26.38;;;5.85;;
17686;SDS011;8962;52.538;13.266;2024-02-21T00:37:40;20.55;;;6.28;;
17686;SDS011;8962;52.538;13.266;2024-02-21T00:40:08;20.83;;;6.70;;
17686;SDS011;8962;52.538;13.266;2024-02-21T00:42:35;18.05;;;5.72;;
17686;SDS011;8962;52.538;13.266;2024-02-21T00:45:03;16.00;;;5.57;;
17686;SDS011;8962;52.538;13.266;2024-02-21T00:47:31;22.33;;;5.90;;
17686;SDS011;8962;52.538;13.266;2024-02-21T00:49:58;25.08;;;6.00;;
17686;SDS011;8962;52.538;13.266;2024-02-21T00:52:27;18.50;;;5.25;;
17686;SDS011;8962;52.538;13.266;2024-02-21T00:54:54;23.00;;;5.65;;
17686;SDS011;8962;52.538;13.266;2024-02-21T00:57:22;16.73;;;5.45;;
17686;SDS011;8962;52.538;13.266;2024-02-21T00:59:49;17.02;;;5.85;;
17686;SDS011;8962;52.538;13.266;2024-02-21T01:02:16;21.00;;;5.32;;
17686;SDS011;8962;52.538;13.266;2024-02-21T01:04:43;20.50;;;5.78;;
17686;SDS011;8962;52.538;13.266;2024-02-21T01:07:11;24.50;;;6.20;;
17686;SDS011;8962;52.538;13.266;2024-02-21T01:09:39;14.48;;;4.95;;
17686;SDS011;8962;52.538;13.266;2024-02-21T01:12:07;19.63;;;6.22;;
17686;SDS011;8962;52.538;13.266;2024-02-21T01:14:34;17.20;;;5.93;;
17686;SDS011;8962;52.538;13.266;2024-02-21T01:17:02;20.08;;;5.15;;
17686;SDS011;8962;52.538;13.266;2024-02-21T01:19:31;14.43;;;5.30;;
17686;SDS011;8962;52.538;13.266;2024-02-21T01:21:58;18.58;;;5.20;;
17686;SDS011;8962;52.538;13.266;2024-02-21T01:24:25;17.05;;;5.30;;
17686;SDS011;8962;52.538;13.266;2024-02-21T01:26:54;21.15;;;5.57;;
17686;SDS011;8962;52.538;13.266;2024-02-21T01:29:21;16.40;;;5.50;;
17686;SDS011;8962;52.538;13.266;2024-02-21T01:31:48;19.52;;;5.20;;
17686;SDS011;8962;52.538;13.266;2024-02-21T01:34:15;24.00;;;5.88;;
17686;SDS011;8962;52.538;13.266;2024-02-21T01:36:42;19.17;;;5.50;;
17686;SDS011;8962;52.538;13.266;2024-02-21T01:39:09;21.58;;;5.85;;
17686;SDS011;8962;52.538;13.266;2024-02-21T01:41:36;15.77;;;5.25;;
17686;SDS011;8962;52.538;13.266;2024-02-21T01:44:05;14.25;;;5.45;;
17686;SDS011;8962;52.538;13.266;2024-02-21T01:46:32;19.80;;;5.97;;
17686;SDS011;8962;52.538;13.266;2024-02-21T01:49:00;20.60;;;5.90;;
17686;SDS011;8962;52.538;13.266;2024-02-21T01:51:27;16.20;;;5.28;;
17686;SDS011;8962;52.538;13.266;2024-02-21T01:53:55;16.20;;;5.35;;
17686;SDS011;8962;52.538;13.266;2024-02-21T01:56:25;18.80;;;5.53;;
17686;SDS011;8962;52.538;13.266;2024-02-21T01:58:53;16.50;;;5.05;;
17686;SDS011;8962;52.538;13.266;2024-02-21T02:01:23;17.75;;;5.55;;
17686;SDS011;8962;52.538;13.266;2024-02-21T02:03:51;17.65;;;5.32;;
17686;SDS011;8962;52.538;13.266;2024-02-21T02:06:18;17.30;;;5.13;;
17686;SDS011;8962;52.538;13.266;2024-02-21T02:08:46;21.90;;;5.10;;
17686;SDS011;8962;52.538;13.266;2024-02-21T02:11:13;16.73;;;4.82;;
17686;SDS011;8962;52.538;13.266;2024-02-21T02:13:41;17.77;;;5.68;;
17686;SDS011;8962;52.538;13.266;2024-02-21T02:16:08;21.15;;;5.97;;
17686;SDS011;8962;52.538;13.266;2024-02-21T02:18:36;18.90;;;5.63;;
17686;SDS011;8962;52.538;13.266;2024-02-21T02:21:04;13.15;;;5.00;;
17686;SDS011;8962;52.538;13.266;2024-02-21T02:23:36;25.40;;;6.05;;
17686;SDS011;8962;52.538;13.266;2024-02-21T02:26:03;14.90;;;5.28;;
17686;SDS011;8962;52.538;13.266;2024-02-21T02:28:32;19.02;;;5.47;;
17686;SDS011;8962;52.538;13.266;2024-02-21T02:30:59;18.63;;;5.95;;
17686;SDS011;8962;52.538;13.266;2024-02-21T02:33:28;15.52;;;5.25;;
17686;SDS011;8962;52.538;13.266;2024-02-21T02:35:55;18.95;;;5.85;;
17686;SDS011;8962;52.538;13.266;2024-02-21T02:38:24;17.92;;;5.65;;
17686;SDS011;8962;52.538;13.266;2024-02-21T02:40:52;20.50;;;6.05;;
17686;SDS011;8962;52.538;13.266;2024-02-21T02:43:19;21.40;;;5.85;;
17686;SDS011;8962;52.538;13.266;2024-02-21T02:45:46;23.58;;;6.68;;
17686;SDS011;8962;52.538;13.266;2024-02-21T02:48:14;17.75;;;6.13;;
17686;SDS011;8962;52.538;13.266;2024-02-21T02:50:41;22.48;;;6.55;;
17686;SDS011;8962;52.538;13.266;2024-02-21T02:53:08;28.95;;;7.55;;
17686;SDS011;8962;52.538;13.266;2024-02-21T02:55:37;19.48;;;5.47;;
17686;SDS011;8962;52.538;13.266;2024-02-21T02:58:06;26.98;;;7.13;;
17686;SDS011;8962;52.538;13.266;2024-02-21T03:00:34;24.25;;;6.57;;
17686;SDS011;8962;52.538;13.266;2024-02-21T03:03:01;23.80;;;6.43;;
17686;SDS011;8962;52.538;13.266;2024-02-21T03:05:29;20.73;;;6.85;;
17686;SDS011;8962;52.538;13.266;2024-02-21T03:07:56;23.02;;;6.45;;
17686;SDS011;8962;52.538;13.266;2024-02-21T03:10:24;22.08;;;6.75;;
17686;SDS011;8962;52.538;13.266;2024-02-21T03:12:51;20.02;;;6.15;;
17686;SDS011;8962;52.538;13.266;2024-02-21T03:15:20;20.52;;;6.72;;
17686;SDS011;8962;52.538;13.266;2024-02-21T03:17:47;17.05;;;6.82;;
17686;SDS011;8962;52.538;13.266;2024-02-21T03:20:14;18.95;;;6.95;;
17686;SDS011;8962;52.538;13.266;2024-02-21T03:22:42;22.13;;;6.97;;
17686;SDS011;8962;52.538;13.266;2024-02-21T03:25:09;22.88;;;6.55;;
17686;SDS011;8962;52.538;13.266;2024-02-21T03:27:37;22.88;;;7.30;;
17686;SDS011;8962;52.538;13.266;2024-02-21T03:30:05;26.70;;;8.00;;
17686;SDS011;8962;52.538;13.266;2024-02-21T03:32:34;27.85;;;7.65;;
17686;SDS011;8962;52.538;13.266;2024-02-21T03:35:01;18.40;;;7.88;;
17686;SDS011;8962;52.538;13.266;2024-02-21T03:37:28;24.40;;;7.55;;
17686;SDS011;8962;52.538;13.266;2024-02-21T03:39:55;26.20;;;8.70;;
17686;SDS011;8962;52.538;13.266;2024-02-21T03:42:22;26.05;;;7.78;;
17686;SDS011;8962;52.538;13.266;2024-02-21T03:44:50;20.73;;;7.68;;
17686;SDS011;8962;52.538;13.266;2024-02-21T03:47:17;26.92;;;8.32;;
17686;SDS011;8962;52.538;13.266;2024-02-21T03:49:45;24.35;;;8.05;;
17686;SDS011;8962;52.538;13.266;2024-02-21T03:52:12;23.10;;;7.70;;
17686;SDS011;8962;52.538;13.266;2024-02-21T03:54:40;22.27;;;7.20;;
17686;SDS011;8962;52.538;13.266;2024-02-21T03:57:07;27.38;;;8.55;;
17686;SDS011;8962;52.538;13.266;2024-02-21T03:59:34;23.80;;;7.97;;
17686;SDS011;8962;52.538;13.266;2024-02-21T04:02:01;25.42;;;8.48;;
17686;SDS011;8962;52.538;13.266;2024-02-21T04:04:29;21.35;;;8.55;;
17686;SDS011;8962;52.538;13.266;2024-02-21T04:06:59;29.65;;;9.02;;
17686;SDS011;8962;52.538;13.266;2024-02-21T04:09:27;26.92;;;8.75;;
17686;SDS011;8962;52.538;13.266;2024-02-21T04:11:54;24.15;;;8.93;;
17686;SDS011;8962;52.538;13.266;2024-02-21T04:14:21;26.08;;;9.57;;
17686;SDS011;8962;52.538;13.266;2024-02-21T04:16:48;22.88;;;8.63;;
17686;SDS011;8962;52.538;13.266;2024-02-21T04:19:15;25.52;;;8.45;;
17686;SDS011;8962;52.538;13.266;2024-02-21T04:21:42;28.63;;;8.18;;
17686;SDS011;8962;52.538;13.266;2024-02-21T04:24:11;22.80;;;8.23;;
17686;SDS011;8962;52.538;13.266;2024-02-21T04:26:38;25.52;;;8.95;;
17686;SDS011;8962;52.538;13.266;2024-02-21T04:29:05;24.55;;;7.97;;
17686;SDS011;8962;52.538;13.266;2024-02-21T04:31:34;25.30;;;8.25;;
17686;SDS011;8962;52.538;13.266;2024-02-21T04:34:01;25.00;;;8.52;;
17686;SDS011;8962;52.538;13.266;2024-02-21T04:36:28;23.50;;;8.35;;
17686;SDS011;8962;52.538;13.266;2024-02-21T04:38:55;27.17;;;9.35;;
17686;SDS011;8962;52.538;13.266;2024-02-21T04:41:24;26.00;;;9.23;;
17686;SDS011;8962;52.538;13.266;2024-02-21T04:43:51;24.67;;;8.43;;
17686;SDS011;8962;52.538;13.266;2024-02-21T04:46:18;20.98;;;8.38;;
17686;SDS011;8962;52.538;13.266;2024-02-21T04:48:45;25.55;;;9.15;;
17686;SDS011;8962;52.538;13.266;2024-02-21T04:51:12;28.67;;;9.38;;
17686;SDS011;8962;52.538;13.266;2024-02-21T04:53:39;21.70;;;8.32;;
17686;SDS011;8962;52.538;13.266;2024-02-21T04:56:06;22.33;;;7.88;;
17686;SDS011;8962;52.538;13.266;2024-02-21T04:58:38;29.58;;;8.27;;
17686;SDS011;8962;52.538;13.266;2024-02-21T05:01:05;29.10;;;8.52;;
17686;SDS011;8962;52.538;13.266;2024-02-21T05:03:33;24.38;;;8.57;;
17686;SDS011;8962;52.538;13.266;2024-02-21T05:06:00;28.13;;;8.40;;
17686;SDS011;8962;52.538;13.266;2024-02-21T05:08:27;26.48;;;8.68;;
17686;SDS011;8962;52.538;13.266;2024-02-21T05:10:55;23.45;;;8.35;;
17686;SDS011;8962;52.538;13.266;2024-02-21T05:13:22;21.80;;;8.27;;
17686;SDS011;8962;52.538;13.266;2024-02-21T05:15:51;21.80;;;8.48;;
17686;SDS011;8962;52.538;13.266;2024-02-21T05:18:18;19.52;;;8.43;;
17686;SDS011;8962;52.538;13.266;2024-02-21T05:20:45;26.23;;;8.82;;
17686;SDS011;8962;52.538;13.266;2024-02-21T05:23:12;25.20;;;8.20;;
17686;SDS011;8962;52.538;13.266;2024-02-21T05:25:40;26.35;;;8.73;;
17686;SDS011;8962;52.538;13.266;2024-02-21T05:28:07;21.35;;;8.63;;
17686;SDS011;8962;52.538;13.266;2024-02-21T05:30:34;25.20;;;8.45;;
17686;SDS011;8962;52.538;13.266;2024-02-21T05:33:06;25.48;;;9.70;;
17686;SDS011;8962;52.538;13.266;2024-02-21T05:35:33;26.70;;;9.55;;
17686;SDS011;8962;52.538;13.266;2024-02-21T05:38:01;24.73;;;9.00;;
17686;SDS011;8962;52.538;13.266;2024-02-21T05:40:31;30.27;;;9.68;;
17686;SDS011;8962;52.538;13.266;2024-02-21T05:42:58;21.73;;;8.90;;
17686;SDS011;8962;52.538;13.266;2024-02-21T05:45:25;21.90;;;8.80;;
17686;SDS011;8962;52.538;13.266;2024-02-21T05:47:53;22.38;;;9.20;;
17686;SDS011;8962;52.538;13.266;2024-02-21T05:50:21;20.70;;;9.00;;
17686;SDS011;8962;52.538;13.266;2024-02-21T05:52:50;25.13;;;8.90;;
17686;SDS011;8962;52.538;13.266;2024-02-21T05:55:18;22.80;;;8.88;;
17686;SDS011;8962;52.538;13.266;2024-02-21T05:57:45;28.45;;;9.95;;
17686;SDS011;8962;52.538;13.266;2024-02-21T06:00:13;23.17;;;9.77;;
17686;SDS011;8962;52.538;13.266;2024-02-21T06:02:42;23.40;;;9.48;;
17686;SDS011;8962;52.538;13.266;2024-02-21T06:05:09;20.42;;;9.40;;
17686;SDS011;8962;52.538;13.266;2024-02-21T06:07:39;22.13;;;9.00;;
17686;SDS011;8962;52.538;13.266;2024-02-21T06:10:07;21.85;;;8.73;;
17686;SDS011;8962;52.538;13.266;2024-02-21T06:12:34;24.90;;;9.85;;
17686;SDS011;8962;52.538;13.266;2024-02-21T06:15:01;23.63;;;9.50;;
17686;SDS011;8962;52.538;13.266;2024-02-21T06:17:29;26.38;;;8.70;;
17686;SDS011;8962;52.538;13.266;2024-02-21T06:19:56;23.80;;;9.30;;
17686;SDS011;8962;52.538;13.266;2024-02-21T06:22:23;26.48;;;10.13;;
17686;SDS011;8962;52.538;13.266;2024-02-21T06:24:51;24.27;;;9.75;;
17686;SDS011;8962;52.538;13.266;2024-02-21T06:27:19;23.95;;;10.13;;
17686;SDS011;8962;52.538;13.266;2024-02-21T06:29:47;30.10;;;10.50;;
17686;SDS011;8962;52.538;13.266;2024-02-21T06:32:14;22.77;;;9.38;;
17686;SDS011;8962;52.538;13.266;2024-02-21T06:34:41;25.55;;;10.00;;
17686;SDS011;8962;52.538;13.266;2024-02-21T06:37:08;23.10;;;9.75;;
17686;SDS011;8962;52.538;13.266;2024-02-21T06:39:37;26.10;;;9.95;;
17686;SDS011;8962;52.538;13.266;2024-02-21T06:42:07;28.73;;;9.55;;
17686;SDS011;8962;52.538;13.266;2024-02-21T06:44:34;18.38;;;9.20;;
17686;SDS011;8962;52.538;13.266;2024-02-21T06:47:05;19.67;;;8.93;;
17686;SDS011;8962;52.538;13.266;2024-02-21T06:49:33;23.52;;;9.57;;
17686;SDS011;8962;52.538;13.266;2024-02-21T06:52:02;21.85;;;9.27;;
17686;SDS011;8962;52.538;13.266;2024-02-21T06:54:31;20.38;;;9.50;;
17686;SDS011;8962;52.538;13.266;2024-02-21T06:56:58;24.00;;;9.88;;
17686;SDS011;8962;52.538;13.266;2024-02-21T06:59:26;23.27;;;9.70;;
17686;SDS011;8962;52.538;13.266;2024-02-21T07:01:53;21.35;;;9.57;;
17686;SDS011;8962;52.538;13.266;2024-02-21T07:04:21;20.25;;;9.30;;
17686;SDS011;8962;52.538;13.266;2024-02-21T07:06:48;18.25;;;9.20;;
17686;SDS011;8962;52.538;13.266;2024-02-21T07:09:16;24.45;;;9.30;;
17686;SDS011;8962;52.538;13.266;2024-02-21T07:11:43;19.20;;;9.23;;
17686;SDS011;8962;52.538;13.266;2024-02-21T07:14:10;21.02;;;9.75;;
17686;SDS011;8962;52.538;13.266;2024-02-21T07:16:39;27.65;;;9.85;;
17686;SDS011;8962;52.538;13.266;2024-02-21T07:19:06;20.73;;;9.95;;
17686;SDS011;8962;52.538;13.266;2024-02-21T07:21:33;22.45;;;9.95;;
17686;SDS011;8962;52.538;13.266;2024-02-21T07:24:03;21.73;;;8.95;;
17686;SDS011;8962;52.538;13.266;2024-02-21T07:26:30;22.50;;;9.55;;
17686;SDS011;8962;52.538;13.266;2024-02-21T07:28:58;20.48;;;9.73;;
17686;SDS011;8962;52.538;13.266;2024-02-21T07:31:25;20.13;;;9.00;;
17686;SDS011;8962;52.538;13.266;2024-02-21T07:33:54;21.60;;;9.35;;
17686;SDS011;8962;52.538;13.266;2024-02-21T07:36:25;17.35;;;9.13;;
17686;SDS011;8962;52.538;13.266;2024-02-21T07:38:54;20.63;;;9.57;;
17686;SDS011;8962;52.538;13.266;2024-02-21T07:41:21;20.98;;;9.40;;
17686;SDS011;8962;52.538;13.266;2024-02-21T07:43:48;21.73;;;8.68;;
17686;SDS011;8962;52.538;13.266;2024-02-21T07:46:17;21.58;;;9.38;;
17686;SDS011;8962;52.538;13.266;2024-02-21T07:48:48;16.48;;;8.23;;
17686;SDS011;8962;52.538;13.266;2024-02-21T07:51:16;17.55;;;8.20;;
17686;SDS011;8962;52.538;13.266;2024-02-21T07:53:44;24.45;;;9.00;;
17686;SDS011;8962;52.538;13.266;2024-02-21T07:56:12;21.95;;;9.13;;
17686;SDS011;8962;52.538;13.266;2024-02-21T07:58:40;17.95;;;8.10;;
17686;SDS011;8962;52.538;13.266;2024-02-21T08:01:08;17.25;;;8.00;;
17686;SDS011;8962;52.538;13.266;2024-02-21T08:03:35;15.25;;;8.38;;
17686;SDS011;8962;52.538;13.266;2024-02-21T08:06:02;18.33;;;8.13;;
17686;SDS011;8962;52.538;13.266;2024-02-21T08:08:33;20.83;;;8.63;;
17686;SDS011;8962;52.538;13.266;2024-02-21T08:11:00;18.17;;;7.93;;
17686;SDS011;8962;52.538;13.266;2024-02-21T08:13:27;16.17;;;7.85;;
17686;SDS011;8962;52.538;13.266;2024-02-21T08:15:54;17.35;;;7.82;;
17686;SDS011;8962;52.538;13.266;2024-02-21T08:18:22;20.23;;;8.50;;
17686;SDS011;8962;52.538;13.266;2024-02-21T08:20:51;15.75;;;8.10;;
17686;SDS011;8962;52.538;13.266;2024-02-21T08:23:18;18.80;;;8.13;;
17686;SDS011;8962;52.538;13.266;2024-02-21T08:25:48;17.63;;;7.78;;
17686;SDS011;8962;52.538;13.266;2024-02-21T08:28:16;17.20;;;8.73;;
17686;SDS011;8962;52.538;13.266;2024-02-21T08:30:44;19.52;;;8.07;;
17686;SDS011;8962;52.538;13.266;2024-02-21T08:33:14;16.20;;;7.75;;
17686;SDS011;8962;52.538;13.266;2024-02-21T08:35:43;20.73;;;8.52;;
17686;SDS011;8962;52.538;13.266;2024-02-21T08:38:11;17.60;;;8.55;;
17686;SDS011;8962;52.538;13.266;2024-02-21T08:40:39;18.05;;;8.43;;
17686;SDS011;8962;52.538;13.266;2024-02-21T08:43:08;21.55;;;8.70;;
17686;SDS011;8962;52.538;13.266;2024-02-21T08:45:37;21.67;;;9.23;;
17686;SDS011;8962;52.538;13.266;2024-02-21T08:48:05;21.05;;;8.90;;
17686;SDS011;8962;52.538;13.266;2024-02-21T08:50:33;19.02;;;9.27;;
17686;SDS011;8962;52.538;13.266;2024-02-21T08:53:01;17.40;;;8.57;;
17686;SDS011;8962;52.538;13.266;2024-02-21T08:55:29;23.27;;;8.82;;
17686;SDS011;8962;52.538;13.266;2024-02-21T08:57:56;20.92;;;8.73;;
17686;SDS011;8962;52.538;13.266;2024-02-21T09:00:24;21.17;;;9.27;;
17686;SDS011;8962;52.538;13.266;2024-02-21T09:02:52;19.58;;;10.30;;
17686;SDS011;8962;52.538;13.266;2024-02-21T09:05:21;22.38;;;10.27;;
17686;SDS011;8962;52.538;13.266;2024-02-21T09:07:50;19.73;;;10.82;;
17686;SDS011;8962;52.538;13.266;2024-02-21T09:10:17;24.25;;;10.43;;
17686;SDS011;8962;52.538;13.266;2024-02-21T09:12:44;18.17;;;10.38;;
17686;SDS011;8962;52.538;13.266;2024-02-21T09:15:12;19.92;;;10.25;;
17686;SDS011;8962;52.538;13.266;2024-02-21T09:17:41;20.17;;;10.52;;
17686;SDS011;8962;52.538;13.266;2024-02-21T09:20:09;21.90;;;10.70;;
17686;SDS011;8962;52.538;13.266;2024-02-21T09:22:37;21.25;;;10.57;;
17686;SDS011;8962;52.538;13.266;2024-02-21T09:25:05;20.33;;;10.05;;
17686;SDS011;8962;52.538;13.266;2024-02-21T09:27:33;19.98;;;10.85;;
17686;SDS011;8962;52.538;13.266;2024-02-21T09:30:01;22.77;;;11.05;;
17686;SDS011;8962;52.538;13.266;2024-02-21T09:32:29;24.67;;;10.48;;
17686;SDS011;8962;52.538;13.266;2024-02-21T09:34:59;26.33;;;10.63;;
17686;SDS011;8962;52.538;13.266;2024-02-21T09:37:26;24.63;;;11.35;;
17686;SDS011;8962;52.538;13.266;2024-02-21T09:39:53;26.08;;;11.60;;
17686;SDS011;8962;52.538;13.266;2024-02-21T09:42:20;23.88;;;11.93;;
17686;SDS011;8962;52.538;13.266;2024-02-21T09:44:48;26.05;;;11.40;;
17686;SDS011;8962;52.538;13.266;2024-02-21T09:47:19;19.58;;;11.40;;
17686;SDS011;8962;52.538;13.266;2024-02-21T09:49:51;23.60;;;11.23;;
17686;SDS011;8962;52.538;13.266;2024-02-21T09:52:23;22.38;;;11.05;;
17686;SDS011;8962;52.538;13.266;2024-02-21T09:54:52;21.42;;;11.00;;
17686;SDS011;8962;52.538;13.266;2024-02-21T09:57:22;22.30;;;10.43;;
17686;SDS011;8962;52.538;13.266;2024-02-21T09:59:50;25.83;;;11.27;;
17686;SDS011;8962;52.538;13.266;2024-02-21T10:02:18;24.33;;;11.63;;
17686;SDS011;8962;52.538;13.266;2024-02-21T10:04:45;22.65;;;10.80;;
17686;SDS011;8962;52.538;13.266;2024-02-21T10:07:12;20.50;;;10.48;;
17686;SDS011;8962;52.538;13.266;2024-02-21T10:09:41;22.40;;;10.98;;
17686;SDS011;8962;52.538;13.266;2024-02-21T10:12:11;19.45;;;11.52;;
17686;SDS011;8962;52.538;13.266;2024-02-21T10:14:39;22.63;;;10.88;;
17686;SDS011;8962;52.538;13.266;2024-02-21T10:17:06;19.23;;;11.32;;
17686;SDS011;8962;52.538;13.266;2024-02-21T10:19:34;22.63;;;10.65;;
17686;SDS011;8962;52.538;13.266;2024-02-21T10:22:02;23.77;;;11.30;;
17686;SDS011;8962;52.538;13.266;2024-02-21T10:24:30;20.98;;;10.20;;
17686;SDS011;8962;52.538;13.266;2024-02-21T10:27:05;20.42;;;10.30;;
17686;SDS011;8962;52.538;13.266;2024-02-21T10:29:34;20.27;;;10.50;;
17686;SDS011;8962;52.538;13.266;2024-02-21T10:32:05;22.77;;;11.13;;
17686;SDS011;8962;52.538;13.266;2024-02-21T10:34:33;25.67;;;14.07;;
17686;SDS011;8962;52.538;13.266;2024-02-21T10:37:01;20.35;;;9.95;;
17686;SDS011;8962;52.538;13.266;2024-02-21T10:39:29;26.30;;;10.75;;
17686;SDS011;8962;52.538;13.266;2024-02-21T10:41:58;19.45;;;10.55;;
17686;SDS011;8962;52.538;13.266;2024-02-21T10:44:32;18.90;;;10.68;;
17686;SDS011;8962;52.538;13.266;2024-02-21T10:47:04;19.85;;;10.57;;
17686;SDS011;8962;52.538;13.266;2024-02-21T10:49:35;19.20;;;11.18;;
17686;SDS011;8962;52.538;13.266;2024-02-21T10:52:06;17.13;;;9.85;;
17686;SDS011;8962;52.538;13.266;2024-02-21T10:54:44;18.48;;;10.57;;
17686;SDS011;8962;52.538;13.266;2024-02-21T10:57:15;25.30;;;10.45;;
17686;SDS011;8962;52.538;13.266;2024-02-21T10:59:45;18.00;;;9.82;;
17686;SDS011;8962;52.538;13.266;2024-02-21T11:02:14;18.05;;;9.32;;
17686;SDS011;8962;52.538;13.266;2024-02-21T11:04:42;16.02;;;9.43;;
17686;SDS011;8962;52.538;13.266;2024-02-21T11:07:10;16.85;;;9.32;;
17686;SDS011;8962;52.538;13.266;2024-02-21T11:09:38;18.60;;;9.43;;
17686;SDS011;8962;52.538;13.266;2024-02-21T11:12:05;20.77;;;10.05;;
17686;SDS011;8962;52.538;13.266;2024-02-21T11:14:33;15.45;;;8.82;;
17686;SDS011;8962;52.538;13.266;2024-02-21T11:17:13;20.85;;;9.27;;
17686;SDS011;8962;52.538;13.266;2024-02-21T11:19:41;17.85;;;8.65;;
17686;SDS011;8962;52.538;13.266;2024-02-21T11:22:14;16.23;;;8.85;;
17686;SDS011;8962;52.538;13.266;2024-02-21T11:24:42;16.17;;;8.35;;
17686;SDS011;8962;52.538;13.266;2024-02-21T11:27:09;15.73;;;7.82;;
17686;SDS011;8962;52.538;13.266;2024-02-21T11:29:42;13.15;;;7.82;;
17686;SDS011;8962;52.538;13.266;2024-02-21T11:32:11;26.35;;;11.75;;
17686;SDS011;8962;52.538;13.266;2024-02-21T11:34:40;12.00;;;7.10;;
17686;SDS011;8962;52.538;13.266;2024-02-21T11:37:14;14.23;;;6.80;;
17686;SDS011;8962;52.538;13.266;2024-02-21T11:39:42;18.60;;;8.65;;
17686;SDS011;8962;52.538;13.266;2024-02-21T11:42:09;14.52;;;6.70;;
17686;SDS011;8962;52.538;13.266;2024-02-21T11:44:38;12.23;;;6.55;;
17686;SDS011;8962;52.538;13.266;2024-02-21T11:47:08;11.10;;;6.30;;
17686;SDS011;8962;52.538;13.266;2024-02-21T11:49:37;12.48;;;6.45;;
17686;SDS011;8962;52.538;13.266;2024-02-21T11:52:05;9.93;;;6.13;;
17686;SDS011;8962;52.538;13.266;2024-02-21T11:54:33;12.15;;;6.50;;
17686;SDS011;8962;52.538;13.266;2024-02-21T11:57:00;14.43;;;6.88;;
17686;SDS011;8962;52.538;13.266;2024-02-21T11:59:29;12.18;;;6.50;;
17686;SDS011;8962;52.538;13.266;2024-02-21T12:01:58;10.38;;;5.97;;
17686;SDS011;8962;52.538;13.266;2024-02-21T12:04:28;12.35;;;6.22;;
17686;SDS011;8962;52.538;13.266;2024-02-21T12:06:58;16.55;;;7.70;;
17686;SDS011;8962;52.538;13.266;2024-02-21T12:09:25;13.10;;;6.65;;
17686;SDS011;8962;52.538;13.266;2024-02-21T12:11:58;9.23;;;5.93;;
17686;SDS011;8962;52.538;13.266;2024-02-21T12:14:27;11.02;;;6.50;;
17686;SDS011;8962;52.538;13.266;2024-02-21T12:16:55;11.68;;;5.90;;
17686;SDS011;8962;52.538;13.266;2024-02-21T12:19:23;9.75;;;5.75;;
17686;SDS011;8962;52.538;13.266;2024-02-21T12:21:50;12.45;;;6.00;;
17686;SDS011;8962;52.538;13.266;2024-02-21T12:24:21;8.63;;;5.38;;
17686;SDS011;8962;52.538;13.266;2024-02-21T12:26:49;14.10;;;6.32;;
17686;SDS011;8962;52.538;13.266;2024-02-21T12:29:18;13.40;;;5.45;;
17686;SDS011;8962;52.538;13.266;2024-02-21T12:31:45;13.30;;;5.78;;
17686;SDS011;8962;52.538;13.266;2024-02-21T12:34:12;12.77;;;4.90;;
17686;SDS011;8962;52.538;13.266;2024-02-21T12:36:42;10.27;;;4.78;;
17686;SDS011;8962;52.538;13.266;2024-02-21T12:39:12;10.68;;;4.28;;
17686;SDS011;8962;52.538;13.266;2024-02-21T12:41:43;9.55;;;4.63;;
17686;SDS011;8962;52.538;13.266;2024-02-21T12:44:10;7.82;;;4.75;;
17686;SDS011;8962;52.538;13.266;2024-02-21T12:46:38;14.65;;;4.55;;
17686;SDS011;8962;52.538;13.266;2024-02-21T12:49:05;7.88;;;4.55;;
17686;SDS011;8962;52.538;13.266;2024-02-21T12:51:34;10.60;;;4.90;;
17686;SDS011;8962;52.538;13.266;2024-02-21T12:54:04;9.95;;;4.47;;
17686;SDS011;8962;52.538;13.266;2024-02-21T12:56:31;8.88;;;4.43;;
17686;SDS011;8962;52.538;13.266;2024-02-21T12:59:00;7.60;;;4.32;;
17686;SDS011;8962;52.538;13.266;2024-02-21T13:01:30;9.90;;;4.55;;
17686;SDS011;8962;52.538;13.266;2024-02-21T13:03:57;9.35;;;5.25;;
17686;SDS011;8962;52.538;13.266;2024-02-21T13:06:26;10.40;;;4.88;;
17686;SDS011;8962;52.538;13.266;2024-02-21T13:08:53;12.45;;;6.05;;
17686;SDS011;8962;52.538;13.266;2024-02-21T13:11:20;12.48;;;5.55;;
17686;SDS011;8962;52.538;13.266;2024-02-21T13:13:47;8.98;;;5.18;;
17686;SDS011;8962;52.538;13.266;2024-02-21T13:16:16;7.78;;;4.78;;
17686;SDS011;8962;52.538;13.266;2024-02-21T13:18:43;6.97;;;4.65;;
17686;SDS011;8962;52.538;13.266;2024-02-21T13:21:12;10.15;;;5.10;;
17686;SDS011;8962;52.538;13.266;2024-02-21T13:23:39;8.45;;;5.05;;
17686;SDS011;8962;52.538;13.266;2024-02-21T13:26:09;8.90;;;4.63;;
17686;SDS011;8962;52.538;13.266;2024-02-21T13:28:37;9.05;;;5.20;;
17686;SDS011;8962;52.538;13.266;2024-02-21T13:31:03;10.38;;;5.03;;
17686;SDS011;8962;52.538;13.266;2024-02-21T13:33:33;10.45;;;4.78;;
17686;SDS011;8962;52.538;13.266;2024-02-21T13:36:01;10.50;;;4.30;;
17686;SDS011;8962;52.538;13.266;2024-02-21T13:38:29;9.15;;;4.80;;
17686;SDS011;8962;52.538;13.266;2024-02-21T13:40:56;57.65;;;25.13;;
17686;SDS011;8962;52.538;13.266;2024-02-21T13:43:25;12.30;;;6.80;;
17686;SDS011;8962;52.538;13.266;2024-02-21T13:45:55;16.13;;;8.00;;
17686;SDS011;8962;52.538;13.266;2024-02-21T13:48:24;10.02;;;5.10;;
17686;SDS011;8962;52.538;13.266;2024-02-21T13:50:53;12.25;;;4.97;;
17686;SDS011;8962;52.538;13.266;2024-02-21T13:53:21;12.18;;;4.57;;
17686;SDS011;8962;52.538;13.266;2024-02-21T13:55:49;12.77;;;5.22;;
17686;SDS011;8962;52.538;13.266;2024-02-21T13:58:17;11.68;;;5.78;;
17686;SDS011;8962;52.538;13.266;2024-02-21T14:00:46;15.30;;;6.28;;
17686;SDS011;8962;52.538;13.266;2024-02-21T14:03:14;10.77;;;4.47;;
17686;SDS011;8962;52.538;13.266;2024-02-21T14:05:41;17.50;;;8.77;;
17686;SDS011;8962;52.538;13.266;2024-02-21T14:08:09;13.82;;;6.30;;
17686;SDS011;8962;52.538;13.266;2024-02-21T14:10:36;12.07;;;5.15;;
17686;SDS011;8962;52.538;13.266;2024-02-21T14:13:03;8.65;;;4.72;;
17686;SDS011;8962;52.538;13.266;2024-02-21T14:15:30;9.18;;;4.30;;
17686;SDS011;8962;52.538;13.266;2024-02-21T14:17:58;12.27;;;4.60;;
17686;SDS011;8962;52.538;13.266;2024-02-21T14:20:25;13.05;;;4.40;;
17686;SDS011;8962;52.538;13.266;2024-02-21T14:22:52;8.80;;;3.70;;
17686;SDS011;8962;52.538;13.266;2024-02-21T14:25:19;9.48;;;4.35;;
17686;SDS011;8962;52.538;13.266;2024-02-21T14:27:46;8.90;;;4.28;;
17686;SDS011;8962;52.538;13.266;2024-02-21T14:30:13;10.05;;;3.72;;
17686;SDS011;8962;52.538;13.266;2024-02-21T14:32:43;8.70;;;4.07;;
17686;SDS011;8962;52.538;13.266;2024-02-21T14:35:11;8.95;;;4.20;;
17686;SDS011;8962;52.538;13.266;2024-02-21T14:37:38;8.25;;;4.00;;